sensor_id;sensor_type;location;lat;lon;timestamp;pressure;altitude;pressure_sealevel;temperature;humidity
15914;BME280;8055;51.930;8.840;2023-03-20T00:01:51;76327.56;;;-145.72;100.00
15914;BME280;8055;51.930;8.840;2023-03-20T00:04:16;76329.63;;;-145.72;100.00
15914;BME280;8055;51.930;8.840;2023-03-20T00:06:41;76342.03;;;-145.72;100.00
15914;BME280;8055;51.930;8.840;2023-03-20T00:09:07;76360.66;;;-145.72;100.00
15914;BME280;8055;51.930;8.840;2023-03-20T00:11:35;76358.59;;;-145.72;100.00
15914;BME280;8055;51.930;8.840;2023-03-20T00:14:08;76362.72;;;-145.72;100.00
15914;BME280;8055;51.930;8.840;2023-03-20T00:16:36;76368.94;;;-145.72;100.00
15914;BME280;8055;51.930;8.840;2023-03-20T00:19:04;76371.00;;;-145.72;100.00
15914;BME280;8055;51.930;8.840;2023-03-20T00:21:31;76397.91;;;-145.72;100.00
15914;BME280;8055;51.930;8.840;2023-03-20T00:23:57;76393.78;;;-145.72;100.00
15914;BME280;8055;51.930;8.840;2023-03-20T00:26:32;76402.06;;;-145.72;100.00
15914;BME280;8055;51.930;8.840;2023-03-20T00:28:57;76410.34;;;-145.72;100.00
15914;BME280;8055;51.930;8.840;2023-03-20T00:31:28;76416.53;;;-145.72;100.00
15914;BME280;8055;51.930;8.840;2023-03-20T00:33:59;76418.63;;;-145.72;100.00
15914;BME280;8055;51.930;8.840;2023-03-20T00:36:26;76424.81;;;-145.72;100.00
15914;BME280;8055;51.930;8.840;2023-03-20T00:38:52;76428.97;;;-145.72;100.00
15914;BME280;8055;51.930;8.840;2023-03-20T00:41:24;76435.16;;;-145.72;100.00
15914;BME280;8055;51.930;8.840;2023-03-20T00:43:54;76441.38;;;-145.72;100.00
15914;BME280;8055;51.930;8.840;2023-03-20T00:46:21;76453.78;;;-145.72;100.00
15914;BME280;8055;51.930;8.840;2023-03-20T00:48:47;76462.06;;;-145.72;100.00
15914;BME280;8055;51.930;8.840;2023-03-20T00:51:13;76462.06;;;-145.72;100.00
15914;BME280;8055;51.930;8.840;2023-03-20T00:53:38;76466.22;;;-145.72;100.00
15914;BME280;8055;51.930;8.840;2023-03-20T00:56:05;76472.41;;;-145.72;100.00
15914;BME280;8055;51.930;8.840;2023-03-20T00:58:30;76470.34;;;-145.72;100.00
15914;BME280;8055;51.930;8.840;2023-03-20T01:00:56;76484.84;;;-145.72;100.00
15914;BME280;8055;51.930;8.840;2023-03-20T01:03:24;76491.03;;;-145.72;100.00
15914;BME280;8055;51.930;8.840;2023-03-20T01:05:50;76501.41;;;-145.72;100.00
15914;BME280;8055;51.930;8.840;2023-03-20T01:08:19;76505.53;;;-145.72;100.00
15914;BME280;8055;51.930;8.840;2023-03-20T01:10:46;76503.47;;;-145.72;100.00
15914;BME280;8055;51.930;8.840;2023-03-20T01:13:27;76503.47;;;-145.72;100.00
15914;BME280;8055;51.930;8.840;2023-03-20T01:15:54;76509.69;;;-145.72;100.00
15914;BME280;8055;51.930;8.840;2023-03-20T01:18:22;76511.75;;;-145.72;100.00
15914;BME280;8055;51.930;8.840;2023-03-20T01:20:48;76515.88;;;-145.72;100.00
15914;BME280;8055;51.930;8.840;2023-03-20T01:23:15;76517.97;;;-145.72;100.00
15914;BME280;8055;51.930;8.840;2023-03-20T01:25:40;76513.81;;;-145.72;100.00
15914;BME280;8055;51.930;8.840;2023-03-20T01:28:19;76517.97;;;-145.72;100.00
15914;BME280;8055;51.930;8.840;2023-03-20T01:30:46;76515.88;;;-145.72;100.00
15914;BME280;8055;51.930;8.840;2023-03-20T01:33:17;76509.69;;;-145.72;100.00
15914;BME280;8055;51.930;8.840;2023-03-20T01:35:43;76507.59;;;-145.72;100.00
15914;BME280;8055;51.930;8.840;2023-03-20T01:38:15;76493.13;;;-145.72;100.00
15914;BME280;8055;51.930;8.840;2023-03-20T01:43:26;76503.47;;;-145.72;100.00
15914;BME280;8055;51.930;8.840;2023-03-20T01:45:57;76507.59;;;-145.72;100.00
15914;BME280;8055;51.930;8.840;2023-03-20T01:48:30;76509.69;;;-145.72;100.00
15914;BME280;8055;51.930;8.840;2023-03-20T01:50:57;76511.75;;;-145.72;100.00
15914;BME280;8055;51.930;8.840;2023-03-20T01:53:25;76513.81;;;-145.72;100.00
15914;BME280;8055;51.930;8.840;2023-03-20T01:55:53;76513.81;;;-145.72;100.00
15914;BME280;8055;51.930;8.840;2023-03-20T01:58:24;76507.59;;;-145.72;100.00
15914;BME280;8055;51.930;8.840;2023-03-20T02:00:51;76511.75;;;-145.72;100.00
15914;BME280;8055;51.930;8.840;2023-03-20T02:03:18;76511.75;;;-145.72;100.00
15914;BME280;8055;51.930;8.840;2023-03-20T02:05:44;76507.59;;;-145.72;100.00
15914;BME280;8055;51.930;8.840;2023-03-20T02:08:22;76513.81;;;-145.72;100.00
15914;BME280;8055;51.930;8.840;2023-03-20T02:10:48;76515.88;;;-145.72;100.00
15914;BME280;8055;51.930;8.840;2023-03-20T02:13:15;76513.81;;;-145.72;100.00
15914;BME280;8055;51.930;8.840;2023-03-20T02:18:25;76511.75;;;-145.72;100.00
15914;BME280;8055;51.930;8.840;2023-03-20T02:30:24;76513.81;;;-145.72;100.00
15914;BME280;8055;51.930;8.840;2023-03-20T02:32:49;76507.59;;;-145.72;100.00
15914;BME280;8055;51.930;8.840;2023-03-20T02:43:30;76497.25;;;-145.72;100.00
15914;BME280;8055;51.930;8.840;2023-03-20T02:46:18;76503.47;;;-145.72;100.00
15914;BME280;8055;51.930;8.840;2023-03-20T02:49:07;76503.47;;;-145.72;100.00
15914;BME280;8055;51.930;8.840;2023-03-20T02:51:40;76501.41;;;-145.72;100.00
15914;BME280;8055;51.930;8.840;2023-03-20T02:57:02;76499.31;;;-145.72;100.00
15914;BME280;8055;51.930;8.840;2023-03-20T03:02:12;76501.41;;;-145.72;100.00
15914;BME280;8055;51.930;8.840;2023-03-20T03:04:51;76505.53;;;-145.72;100.00
15914;BME280;8055;51.930;8.840;2023-03-20T03:07:21;76505.53;;;-145.72;100.00
15914;BME280;8055;51.930;8.840;2023-03-20T03:09:52;76501.41;;;-145.72;100.00
15914;BME280;8055;51.930;8.840;2023-03-20T03:12:27;76507.59;;;-145.72;100.00
15914;BME280;8055;51.930;8.840;2023-03-20T03:15:01;76507.59;;;-145.72;100.00
15914;BME280;8055;51.930;8.840;2023-03-20T03:17:31;76511.75;;;-145.72;100.00
15914;BME280;8055;51.930;8.840;2023-03-20T03:20:02;76515.88;;;-145.72;100.00
15914;BME280;8055;51.930;8.840;2023-03-20T03:22:29;76509.69;;;-145.72;100.00
15914;BME280;8055;51.930;8.840;2023-03-20T03:24:56;76517.97;;;-145.72;100.00
15914;BME280;8055;51.930;8.840;2023-03-20T03:27:35;76517.97;;;-145.72;100.00
15914;BME280;8055;51.930;8.840;2023-03-20T03:30:09;76511.75;;;-145.72;100.00
15914;BME280;8055;51.930;8.840;2023-03-20T03:35:15;76509.69;;;-145.72;100.00
15914;BME280;8055;51.930;8.840;2023-03-20T03:37:56;76515.88;;;-145.72;100.00
15914;BME280;8055;51.930;8.840;2023-03-20T03:43:14;76511.75;;;-145.72;100.00
15914;BME280;8055;51.930;8.840;2023-03-20T03:45:49;76515.88;;;-145.72;100.00
15914;BME280;8055;51.930;8.840;2023-03-20T03:48:24;76522.09;;;-145.72;100.00
15914;BME280;8055;51.930;8.840;2023-03-20T03:50:53;76528.31;;;-145.72;100.00
15914;BME280;8055;51.930;8.840;2023-03-20T03:53:26;76530.38;;;-145.72;100.00
15914;BME280;8055;51.930;8.840;2023-03-20T03:56:00;76530.38;;;-145.72;100.00
15914;BME280;8055;51.930;8.840;2023-03-20T03:58:29;76530.38;;;-145.72;100.00
15914;BME280;8055;51.930;8.840;2023-03-20T04:00:57;76526.22;;;-145.72;100.00
15914;BME280;8055;51.930;8.840;2023-03-20T04:03:29;76536.59;;;-145.72;100.00
15914;BME280;8055;51.930;8.840;2023-03-20T04:05:57;76520.03;;;-145.72;100.00
15914;BME280;8055;51.930;8.840;2023-03-20T04:08:24;76524.16;;;-145.72;100.00
15914;BME280;8055;51.930;8.840;2023-03-20T04:10:50;76517.97;;;-145.72;100.00
15914;BME280;8055;51.930;8.840;2023-03-20T04:13:15;76511.75;;;-145.72;100.00
15914;BME280;8055;51.930;8.840;2023-03-20T04:15:41;76513.81;;;-145.72;100.00
15914;BME280;8055;51.930;8.840;2023-03-20T04:18:07;76507.59;;;-145.72;100.00
15914;BME280;8055;51.930;8.840;2023-03-20T04:20:33;76503.47;;;-145.72;100.00
15914;BME280;8055;51.930;8.840;2023-03-20T04:22:59;76503.47;;;-145.72;100.00
15914;BME280;8055;51.930;8.840;2023-03-20T04:25:26;76503.47;;;-145.72;100.00
15914;BME280;8055;51.930;8.840;2023-03-20T04:27:51;76505.53;;;-145.72;100.00
15914;BME280;8055;51.930;8.840;2023-03-20T04:30:17;76491.03;;;-145.72;100.00
15914;BME280;8055;51.930;8.840;2023-03-20T04:32:42;76495.19;;;-145.72;100.00
15914;BME280;8055;51.930;8.840;2023-03-20T04:35:08;76491.03;;;-145.72;100.00
15914;BME280;8055;51.930;8.840;2023-03-20T04:37:34;76493.13;;;-145.72;100.00
15914;BME280;8055;51.930;8.840;2023-03-20T04:39:59;76497.25;;;-145.72;100.00
15914;BME280;8055;51.930;8.840;2023-03-20T04:42:24;76491.03;;;-145.72;100.00
15914;BME280;8055;51.930;8.840;2023-03-20T04:44:50;76497.25;;;-145.72;100.00
15914;BME280;8055;51.930;8.840;2023-03-20T04:47:15;76495.19;;;-145.72;100.00
15914;BME280;8055;51.930;8.840;2023-03-20T04:49:41;76503.47;;;-145.72;100.00
15914;BME280;8055;51.930;8.840;2023-03-20T04:52:07;76499.31;;;-145.72;100.00
15914;BME280;8055;51.930;8.840;2023-03-20T04:54:32;76503.47;;;-145.72;100.00
15914;BME280;8055;51.930;8.840;2023-03-20T04:56:58;76505.53;;;-145.72;100.00
15914;BME280;8055;51.930;8.840;2023-03-20T04:59:23;76505.53;;;-145.72;100.00
15914;BME280;8055;51.930;8.840;2023-03-20T05:01:48;76507.59;;;-145.72;100.00
15914;BME280;8055;51.930;8.840;2023-03-20T05:04:14;76520.03;;;-145.72;100.00
15914;BME280;8055;51.930;8.840;2023-03-20T05:06:39;76515.88;;;-145.72;100.00
15914;BME280;8055;51.930;8.840;2023-03-20T05:09:05;76520.03;;;-145.72;100.00
15914;BME280;8055;51.930;8.840;2023-03-20T05:11:31;76526.22;;;-145.72;100.00
15914;BME280;8055;51.930;8.840;2023-03-20T05:13:56;76530.38;;;-145.72;100.00
15914;BME280;8055;51.930;8.840;2023-03-20T05:16:21;76546.94;;;-145.72;100.00
15914;BME280;8055;51.930;8.840;2023-03-20T05:18:47;76553.13;;;-145.72;100.00
15914;BME280;8055;51.930;8.840;2023-03-20T05:21:12;76551.06;;;-145.72;100.00
15914;BME280;8055;51.930;8.840;2023-03-20T05:23:38;76549.00;;;-145.72;100.00
15914;BME280;8055;51.930;8.840;2023-03-20T05:26:04;76553.13;;;-145.72;100.00
15914;BME280;8055;51.930;8.840;2023-03-20T05:28:30;76563.47;;;-145.72;100.00
15914;BME280;8055;51.930;8.840;2023-03-20T05:30:55;76557.28;;;-145.72;100.00
15914;BME280;8055;51.930;8.840;2023-03-20T05:33:21;76563.47;;;-145.72;100.00
15914;BME280;8055;51.930;8.840;2023-03-20T05:35:46;76563.47;;;-145.72;100.00
15914;BME280;8055;51.930;8.840;2023-03-20T05:38:12;76567.63;;;-145.72;100.00
15914;BME280;8055;51.930;8.840;2023-03-20T05:40:37;76569.69;;;-145.72;100.00
15914;BME280;8055;51.930;8.840;2023-03-20T05:43:03;76573.84;;;-145.72;100.00
15914;BME280;8055;51.930;8.840;2023-03-20T05:45:28;76577.97;;;-145.72;100.00
15914;BME280;8055;51.930;8.840;2023-03-20T05:47:54;76577.97;;;-145.72;100.00
15914;BME280;8055;51.930;8.840;2023-03-20T05:50:19;76584.19;;;-145.72;100.00
15914;BME280;8055;51.930;8.840;2023-03-20T05:52:48;76580.03;;;-145.72;100.00
15914;BME280;8055;51.930;8.840;2023-03-20T05:55:14;76588.31;;;-145.72;100.00
15914;BME280;8055;51.930;8.840;2023-03-20T05:57:39;76592.47;;;-145.72;100.00
15914;BME280;8055;51.930;8.840;2023-03-20T06:00:06;76580.03;;;-145.72;100.00
15914;BME280;8055;51.930;8.840;2023-03-20T06:02:32;76590.38;;;-145.72;100.00
15914;BME280;8055;51.930;8.840;2023-03-20T06:04:58;76598.66;;;-145.72;100.00
15914;BME280;8055;51.930;8.840;2023-03-20T06:07:23;76592.47;;;-145.72;100.00
15914;BME280;8055;51.930;8.840;2023-03-20T06:09:48;76596.59;;;-145.72;100.00
15914;BME280;8055;51.930;8.840;2023-03-20T06:12:14;76600.75;;;-145.72;100.00
15914;BME280;8055;51.930;8.840;2023-03-20T06:14:40;76594.53;;;-145.72;100.00
15914;BME280;8055;51.930;8.840;2023-03-20T06:17:05;76592.47;;;-145.72;100.00
15914;BME280;8055;51.930;8.840;2023-03-20T06:19:31;76596.59;;;-145.72;100.00
15914;BME280;8055;51.930;8.840;2023-03-20T06:21:56;76604.88;;;-145.72;100.00
15914;BME280;8055;51.930;8.840;2023-03-20T06:24:22;76600.75;;;-145.72;100.00
15914;BME280;8055;51.930;8.840;2023-03-20T06:26:47;76598.66;;;-145.72;100.00
15914;BME280;8055;51.930;8.840;2023-03-20T06:29:13;76604.88;;;-145.72;100.00
15914;BME280;8055;51.930;8.840;2023-03-20T06:31:39;76594.53;;;-145.72;100.00
15914;BME280;8055;51.930;8.840;2023-03-20T06:34:04;76602.81;;;-145.72;100.00
15914;BME280;8055;51.930;8.840;2023-03-20T06:36:29;76590.38;;;-145.72;100.00
15914;BME280;8055;51.930;8.840;2023-03-20T06:38:55;76590.38;;;-145.72;100.00
15914;BME280;8055;51.930;8.840;2023-03-20T06:41:21;76580.03;;;-145.72;100.00
15914;BME280;8055;51.930;8.840;2023-03-20T06:43:46;76594.53;;;-145.72;100.00
15914;BME280;8055;51.930;8.840;2023-03-20T06:46:12;76598.66;;;-145.72;100.00
15914;BME280;8055;51.930;8.840;2023-03-20T06:48:37;76577.97;;;-145.72;100.00
15914;BME280;8055;51.930;8.840;2023-03-20T06:51:03;76590.38;;;-145.72;100.00
15914;BME280;8055;51.930;8.840;2023-03-20T06:53:28;76584.19;;;-145.72;100.00
15914;BME280;8055;51.930;8.840;2023-03-20T06:55:54;76590.38;;;-145.72;100.00
15914;BME280;8055;51.930;8.840;2023-03-20T06:58:19;76598.66;;;-145.72;100.00
15914;BME280;8055;51.930;8.840;2023-03-20T07:00:45;76596.59;;;-145.72;100.00
15914;BME280;8055;51.930;8.840;2023-03-20T07:03:11;76609.00;;;-145.72;100.00
15914;BME280;8055;51.930;8.840;2023-03-20T07:05:37;76588.31;;;-145.72;100.00
15914;BME280;8055;51.930;8.840;2023-03-20T07:08:03;76592.47;;;-145.72;100.00
15914;BME280;8055;51.930;8.840;2023-03-20T07:10:29;76598.66;;;-145.72;100.00
15914;BME280;8055;51.930;8.840;2023-03-20T07:12:55;76602.81;;;-145.72;100.00
15914;BME280;8055;51.930;8.840;2023-03-20T07:15:20;76609.00;;;-145.72;100.00
15914;BME280;8055;51.930;8.840;2023-03-20T07:17:46;76613.16;;;-145.72;100.00
15914;BME280;8055;51.930;8.840;2023-03-20T07:20:12;76606.94;;;-145.72;100.00
15914;BME280;8055;51.930;8.840;2023-03-20T07:22:38;76604.88;;;-145.72;100.00
15914;BME280;8055;51.930;8.840;2023-03-20T07:25:06;76594.53;;;-145.72;100.00
15914;BME280;8055;51.930;8.840;2023-03-20T07:27:32;76598.66;;;-145.72;100.00
15914;BME280;8055;51.930;8.840;2023-03-20T07:29:57;76611.09;;;-145.72;100.00
15914;BME280;8055;51.930;8.840;2023-03-20T07:32:23;76631.78;;;-145.72;100.00
15914;BME280;8055;51.930;8.840;2023-03-20T07:34:48;76625.56;;;-145.72;100.00
15914;BME280;8055;51.930;8.840;2023-03-20T07:37:14;76638.00;;;-145.72;100.00
15914;BME280;8055;51.930;8.840;2023-03-20T07:39:40;76648.34;;;-145.72;100.00
15914;BME280;8055;51.930;8.840;2023-03-20T07:42:05;76642.13;;;-145.72;100.00
15914;BME280;8055;51.930;8.840;2023-03-20T07:44:31;76644.19;;;-145.72;100.00
15914;BME280;8055;51.930;8.840;2023-03-20T07:46:56;76640.06;;;-145.72;100.00
15914;BME280;8055;51.930;8.840;2023-03-20T07:49:21;76638.00;;;-145.72;100.00
15914;BME280;8055;51.930;8.840;2023-03-20T07:51:48;76625.56;;;-145.72;100.00
15914;BME280;8055;51.930;8.840;2023-03-20T07:54:14;76615.22;;;-145.72;100.00
15914;BME280;8055;51.930;8.840;2023-03-20T07:56:40;76635.94;;;-145.72;100.00
15914;BME280;8055;51.930;8.840;2023-03-20T07:59:05;76611.09;;;-145.72;100.00
15914;BME280;8055;51.930;8.840;2023-03-20T08:01:31;76611.09;;;-145.72;100.00
15914;BME280;8055;51.930;8.840;2023-03-20T08:03:56;76600.75;;;-145.72;100.00
15914;BME280;8055;51.930;8.840;2023-03-20T08:06:22;76594.53;;;-145.72;100.00
15914;BME280;8055;51.930;8.840;2023-03-20T08:08:47;76594.53;;;-145.72;100.00
15914;BME280;8055;51.930;8.840;2023-03-20T08:11:16;76588.31;;;-145.72;100.00
15914;BME280;8055;51.930;8.840;2023-03-20T08:13:41;76586.25;;;-145.72;100.00
15914;BME280;8055;51.930;8.840;2023-03-20T08:16:07;76600.75;;;-145.72;100.00
15914;BME280;8055;51.930;8.840;2023-03-20T08:18:32;76594.53;;;-145.72;100.00
15914;BME280;8055;51.930;8.840;2023-03-20T08:20:58;76582.13;;;-145.72;100.00
15914;BME280;8055;51.930;8.840;2023-03-20T08:23:23;76594.53;;;-145.72;100.00
15914;BME280;8055;51.930;8.840;2023-03-20T08:25:50;76588.31;;;-145.72;100.00
15914;BME280;8055;51.930;8.840;2023-03-20T08:28:16;76594.53;;;-145.72;100.00
15914;BME280;8055;51.930;8.840;2023-03-20T08:30:42;76590.38;;;-145.72;100.00
15914;BME280;8055;51.930;8.840;2023-03-20T08:33:07;76594.53;;;-145.72;100.00
15914;BME280;8055;51.930;8.840;2023-03-20T08:35:33;76606.94;;;-145.72;100.00
15914;BME280;8055;51.930;8.840;2023-03-20T08:37:58;76609.00;;;-145.72;100.00
15914;BME280;8055;51.930;8.840;2023-03-20T08:40:24;76611.09;;;-145.72;100.00
15914;BME280;8055;51.930;8.840;2023-03-20T08:42:49;76611.09;;;-145.72;100.00
15914;BME280;8055;51.930;8.840;2023-03-20T08:45:15;76609.00;;;-145.72;100.00
15914;BME280;8055;51.930;8.840;2023-03-20T08:47:41;76598.66;;;-145.72;100.00
15914;BME280;8055;51.930;8.840;2023-03-20T08:50:07;76602.81;;;-145.72;100.00
15914;BME280;8055;51.930;8.840;2023-03-20T08:52:33;76586.25;;;-145.72;100.00
15914;BME280;8055;51.930;8.840;2023-03-20T08:54:59;76571.75;;;-145.72;100.00
15914;BME280;8055;51.930;8.840;2023-03-20T08:57:24;76575.91;;;-145.72;100.00
15914;BME280;8055;51.930;8.840;2023-03-20T08:59:50;76561.41;;;-145.72;100.00
15914;BME280;8055;51.930;8.840;2023-03-20T09:02:15;76540.72;;;-145.72;100.00
15914;BME280;8055;51.930;8.840;2023-03-20T09:04:41;76528.31;;;-145.72;100.00
15914;BME280;8055;51.930;8.840;2023-03-20T09:07:06;76520.03;;;-145.72;100.00
15914;BME280;8055;51.930;8.840;2023-03-20T09:09:31;76509.69;;;-145.72;100.00
15914;BME280;8055;51.930;8.840;2023-03-20T09:11:58;76488.97;;;-145.72;100.00
15914;BME280;8055;51.930;8.840;2023-03-20T09:14:24;76486.91;;;-145.72;100.00
15914;BME280;8055;51.930;8.840;2023-03-20T09:16:50;76476.56;;;-145.72;100.00
15914;BME280;8055;51.930;8.840;2023-03-20T09:19:16;76482.78;;;-145.72;100.00
15914;BME280;8055;51.930;8.840;2023-03-20T09:21:42;76482.78;;;-145.72;100.00
15914;BME280;8055;51.930;8.840;2023-03-20T09:24:07;76474.50;;;-145.72;100.00
15914;BME280;8055;51.930;8.840;2023-03-20T09:26:33;76468.28;;;-145.72;100.00
15914;BME280;8055;51.930;8.840;2023-03-20T09:28:58;76478.63;;;-145.72;100.00
15914;BME280;8055;51.930;8.840;2023-03-20T09:31:24;76472.41;;;-145.72;100.00
15914;BME280;8055;51.930;8.840;2023-03-20T09:33:49;76474.50;;;-145.72;100.00
15914;BME280;8055;51.930;8.840;2023-03-20T09:36:14;76460.00;;;-145.72;100.00
15914;BME280;8055;51.930;8.840;2023-03-20T09:38:41;76476.56;;;-145.72;100.00
15914;BME280;8055;51.930;8.840;2023-03-20T09:41:14;76491.03;;;-145.72;100.00
15914;BME280;8055;51.930;8.840;2023-03-20T09:43:54;76515.88;;;-145.72;100.00
15914;BME280;8055;51.930;8.840;2023-03-20T09:51:55;76524.16;;;-145.72;100.00
15914;BME280;8055;51.930;8.840;2023-03-20T09:54:32;76526.22;;;-145.72;100.00
15914;BME280;8055;51.930;8.840;2023-03-20T09:57:01;76538.66;;;-145.72;100.00
15914;BME280;8055;51.930;8.840;2023-03-20T09:59:28;76538.66;;;-145.72;100.00
15914;BME280;8055;51.930;8.840;2023-03-20T10:02:15;76532.44;;;-145.72;100.00
15914;BME280;8055;51.930;8.840;2023-03-20T10:04:52;76515.88;;;-145.72;100.00
15914;BME280;8055;51.930;8.840;2023-03-20T10:07:19;76509.69;;;-145.72;100.00
15914;BME280;8055;51.930;8.840;2023-03-20T10:09:46;76509.69;;;-145.72;100.00
15914;BME280;8055;51.930;8.840;2023-03-20T10:15:45;76507.59;;;-145.72;100.00
15914;BME280;8055;51.930;8.840;2023-03-20T10:18:25;76517.97;;;-145.72;100.00
15914;BME280;8055;51.930;8.840;2023-03-20T10:21:05;76507.59;;;-145.72;100.00
15914;BME280;8055;51.930;8.840;2023-03-20T10:23:41;76499.31;;;-145.72;100.00
15914;BME280;8055;51.930;8.840;2023-03-20T10:26:11;76507.59;;;-145.72;100.00
15914;BME280;8055;51.930;8.840;2023-03-20T10:29:29;76482.78;;;-145.72;100.00
15914;BME280;8055;51.930;8.840;2023-03-20T10:37:34;76437.25;;;-145.72;100.00
15914;BME280;8055;51.930;8.840;2023-03-20T10:40:32;76410.34;;;-145.72;100.00
15914;BME280;8055;51.930;8.840;2023-03-20T10:45:47;76424.81;;;-145.72;100.00
15914;BME280;8055;51.930;8.840;2023-03-20T10:49:04;76431.03;;;-145.72;100.00
15914;BME280;8055;51.930;8.840;2023-03-20T10:51:14;76408.25;;;-145.72;100.00
15914;BME280;8055;51.930;8.840;2023-03-20T10:54:01;76412.41;;;-145.72;100.00
15914;BME280;8055;51.930;8.840;2023-03-20T10:56:31;76410.34;;;-145.72;100.00
15914;BME280;8055;51.930;8.840;2023-03-20T10:59:06;76414.47;;;-145.72;100.00
15914;BME280;8055;51.930;8.840;2023-03-20T11:01:32;76412.41;;;-145.72;100.00
15914;BME280;8055;51.930;8.840;2023-03-20T11:03:58;76416.53;;;-145.72;100.00
15914;BME280;8055;51.930;8.840;2023-03-20T11:06:40;76404.13;;;-145.72;100.00
15914;BME280;8055;51.930;8.840;2023-03-20T11:09:21;76393.78;;;-145.72;100.00
15914;BME280;8055;51.930;8.840;2023-03-20T11:11:50;76385.50;;;-145.72;100.00
15914;BME280;8055;51.930;8.840;2023-03-20T11:14:18;76381.34;;;-145.72;100.00
15914;BME280;8055;51.930;8.840;2023-03-20T11:16:52;76368.94;;;-145.72;100.00
15914;BME280;8055;51.930;8.840;2023-03-20T11:19:19;76371.00;;;-145.72;100.00
15914;BME280;8055;51.930;8.840;2023-03-20T11:21:48;76358.59;;;-145.72;100.00
15914;BME280;8055;51.930;8.840;2023-03-20T11:24:28;76373.09;;;-145.72;100.00
15914;BME280;8055;51.930;8.840;2023-03-20T11:27:08;76358.59;;;-145.72;100.00
15914;BME280;8055;51.930;8.840;2023-03-20T11:29:35;76350.31;;;-145.72;100.00
15914;BME280;8055;51.930;8.840;2023-03-20T11:32:07;76335.84;;;-145.72;100.00
15914;BME280;8055;51.930;8.840;2023-03-20T11:34:39;76335.84;;;-145.72;100.00
15914;BME280;8055;51.930;8.840;2023-03-20T11:37:21;76329.63;;;-145.72;100.00
15914;BME280;8055;51.930;8.840;2023-03-20T11:40:20;76298.59;;;-145.72;100.00
15914;BME280;8055;51.930;8.840;2023-03-20T11:43:03;76284.09;;;-145.72;100.00
15914;BME280;8055;51.930;8.840;2023-03-20T11:45:40;76255.13;;;-145.72;100.00
15914;BME280;8055;51.930;8.840;2023-03-20T11:48:17;76246.84;;;-145.72;100.00
15914;BME280;8055;51.930;8.840;2023-03-20T11:51:12;76284.09;;;-145.72;100.00
15914;BME280;8055;51.930;8.840;2023-03-20T11:53:56;76277.88;;;-145.72;100.00
15914;BME280;8055;51.930;8.840;2023-03-20T11:56:27;76282.03;;;-145.72;100.00
15914;BME280;8055;51.930;8.840;2023-03-20T11:59:00;76263.41;;;-145.72;100.00
15914;BME280;8055;51.930;8.840;2023-03-20T12:01:27;76273.75;;;-145.72;100.00
15914;BME280;8055;51.930;8.840;2023-03-20T12:06:24;76259.25;;;-145.72;100.00
15914;BME280;8055;51.930;8.840;2023-03-20T12:09:00;76282.03;;;-145.72;100.00
15914;BME280;8055;51.930;8.840;2023-03-20T12:11:58;76263.41;;;-145.72;100.00
15914;BME280;8055;51.930;8.840;2023-03-20T12:14:42;76275.81;;;-145.72;100.00
15914;BME280;8055;51.930;8.840;2023-03-20T12:19:58;76279.97;;;-145.72;100.00
15914;BME280;8055;51.930;8.840;2023-03-20T12:22:33;76263.41;;;-145.72;100.00
15914;BME280;8055;51.930;8.840;2023-03-20T12:25:01;76263.41;;;-145.72;100.00
15914;BME280;8055;51.930;8.840;2023-03-20T12:27:37;76267.53;;;-145.72;100.00
15914;BME280;8055;51.930;8.840;2023-03-20T12:30:27;76253.06;;;-145.72;100.00
15914;BME280;8055;51.930;8.840;2023-03-20T12:33:03;76232.34;;;-145.72;100.00
15914;BME280;8055;51.930;8.840;2023-03-20T12:35:37;76217.88;;;-145.72;100.00
15914;BME280;8055;51.930;8.840;2023-03-20T12:38:17;76207.53;;;-145.72;100.00
15914;BME280;8055;51.930;8.840;2023-03-20T12:40:45;76182.69;;;-145.72;100.00
15914;BME280;8055;51.930;8.840;2023-03-20T12:43:17;76176.47;;;-145.72;100.00
15914;BME280;8055;51.930;8.840;2023-03-20T12:45:46;76199.25;;;-145.72;100.00
15914;BME280;8055;51.930;8.840;2023-03-20T12:51:10;76203.38;;;-145.72;100.00
15914;BME280;8055;51.930;8.840;2023-03-20T13:02:30;76178.56;;;-145.72;100.00
15914;BME280;8055;51.930;8.840;2023-03-20T13:05:24;76166.13;;;-145.72;100.00
15914;BME280;8055;51.930;8.840;2023-03-20T13:10:49;76122.69;;;-145.72;100.00
15914;BME280;8055;51.930;8.840;2023-03-20T13:13:25;76135.09;;;-145.72;100.00
15914;BME280;8055;51.930;8.840;2023-03-20T13:16:27;76155.78;;;-145.72;99.52
15914;BME280;8055;51.930;8.840;2023-03-20T13:19:03;76182.69;;;-145.72;100.00
15914;BME280;8055;51.930;8.840;2023-03-20T13:29:46;76222.00;;;-145.72;100.00
15914;BME280;8055;51.930;8.840;2023-03-20T13:32:21;76250.97;;;-145.72;100.00
15914;BME280;8055;51.930;8.840;2023-03-20T13:37:40;76273.75;;;-145.72;100.00
15914;BME280;8055;51.930;8.840;2023-03-20T13:40:23;76263.41;;;-145.72;100.00
15914;BME280;8055;51.930;8.840;2023-03-20T13:42:59;76265.47;;;-145.72;100.00
15914;BME280;8055;51.930;8.840;2023-03-20T13:45:39;76271.69;;;-145.72;100.00
15914;BME280;8055;51.930;8.840;2023-03-20T13:48:37;76290.31;;;-145.72;100.00
15914;BME280;8055;51.930;8.840;2023-03-20T13:59:01;76325.47;;;-145.72;100.00
15914;BME280;8055;51.930;8.840;2023-03-20T14:04:15;76331.69;;;-145.72;100.00
15914;BME280;8055;51.930;8.840;2023-03-20T14:06:44;76323.41;;;-145.72;100.00
15914;BME280;8055;51.930;8.840;2023-03-20T14:09:37;76321.34;;;-145.72;100.00
15914;BME280;8055;51.930;8.840;2023-03-20T14:12:08;76329.63;;;-145.72;100.00
15914;BME280;8055;51.930;8.840;2023-03-20T14:14:45;76323.41;;;-145.72;100.00
15914;BME280;8055;51.930;8.840;2023-03-20T14:17:20;76315.13;;;-145.72;100.00
15914;BME280;8055;51.930;8.840;2023-03-20T14:19:49;76319.28;;;-145.72;100.00
15914;BME280;8055;51.930;8.840;2023-03-20T14:22:21;76325.47;;;-145.72;100.00
15914;BME280;8055;51.930;8.840;2023-03-20T14:25:05;76321.34;;;-145.72;100.00
15914;BME280;8055;51.930;8.840;2023-03-20T14:30:44;76306.84;;;-145.72;100.00